createdAt,value
2017-10-14T00:10:14.512Z,9.57
2017-10-14T00:12:42.067Z,12.53
2017-10-14T00:15:10.442Z,10.20
2017-10-14T00:17:38.001Z,15.30
2017-10-14T00:20:05.567Z,13.60
2017-10-14T00:22:33.916Z,9.17
2017-10-14T00:25:02.256Z,11.40
2017-10-14T00:27:30.759Z,16.83
2017-10-14T00:29:58.313Z,10.27
2017-10-14T00:32:25.909Z,9.97
2017-10-14T00:34:54.231Z,14.17
2017-10-14T00:37:21.818Z,10.70
2017-10-14T00:39:49.793Z,14.30
2017-10-14T00:42:17.341Z,13.00
2017-10-14T00:44:45.007Z,21.23
2017-10-14T00:47:12.563Z,17.20
2017-10-14T00:49:40.157Z,9.70
2017-10-14T00:52:07.715Z,10.77
2017-10-14T00:54:36.437Z,12.23
2017-10-14T00:57:04.019Z,9.43
2017-10-14T00:59:32.339Z,14.23
2017-10-14T01:02:00.354Z,10.70
2017-10-14T01:04:27.933Z,17.83
2017-10-14T01:06:55.557Z,13.97
2017-10-14T01:09:23.115Z,14.07
2017-10-14T01:11:51.422Z,11.17
2017-10-14T01:14:19.009Z,24.43
2017-10-14T01:16:46.569Z,12.40
2017-10-14T01:19:14.195Z,14.70
2017-10-14T01:21:41.745Z,15.83
2017-10-14T01:24:10.442Z,13.80
2017-10-14T01:26:38.039Z,15.03
2017-10-14T01:29:06.274Z,14.13
2017-10-14T01:31:35.374Z,16.37
2017-10-14T01:34:02.922Z,13.33
2017-10-14T01:36:30.513Z,13.27
2017-10-14T01:38:58.074Z,20.13
2017-10-14T01:41:25.629Z,11.27
2017-10-14T01:43:53.606Z,13.33
2017-10-14T01:46:21.162Z,9.73
2017-10-14T01:48:49.167Z,11.50
2017-10-14T01:51:16.725Z,11.37
2017-10-14T01:53:45.044Z,14.67
2017-10-14T01:56:12.688Z,13.13
2017-10-14T01:58:40.647Z,13.13
2017-10-14T02:01:09.030Z,21.90
2017-10-14T02:03:37.346Z,18.83
2017-10-14T02:06:04.943Z,16.90
2017-10-14T02:08:32.530Z,14.27
2017-10-14T02:11:00.906Z,18.40
2017-10-14T02:13:28.518Z,24.10
2017-10-14T02:15:56.096Z,30.00
2017-10-14T02:18:23.717Z,29.40
2017-10-14T02:20:51.314Z,30.53
2017-10-14T02:23:18.874Z,39.43
2017-10-14T02:25:46.471Z,33.60
2017-10-14T02:28:14.358Z,34.80
2017-10-14T02:30:42.675Z,52.00
2017-10-14T02:33:10.664Z,36.90
2017-10-14T02:35:38.302Z,49.73
2017-10-14T02:38:06.309Z,46.50
2017-10-14T02:40:34.275Z,39.40
2017-10-14T02:43:01.824Z,34.60
2017-10-14T02:45:29.428Z,37.60
2017-10-14T02:47:57.749Z,31.10
2017-10-14T02:50:25.419Z,35.20
2017-10-14T02:52:52.975Z,37.63
2017-10-14T02:55:20.536Z,36.67
2017-10-14T02:57:48.546Z,35.20
2017-10-14T03:00:16.139Z,39.23
2017-10-14T03:02:43.765Z,25.73
2017-10-14T03:05:11.730Z,27.27
2017-10-14T03:07:40.119Z,29.00
2017-10-14T03:10:08.849Z,36.53
2017-10-14T03:12:36.416Z,54.70
2017-10-14T03:15:04.010Z,35.50
2017-10-14T03:17:32.356Z,35.30
2017-10-14T03:20:00.728Z,30.17
2017-10-14T03:22:28.377Z,25.83
2017-10-14T03:24:55.933Z,26.70
2017-10-14T03:27:23.543Z,31.77
2017-10-14T03:29:51.102Z,36.50
2017-10-14T03:32:18.658Z,25.93
2017-10-14T03:34:46.272Z,28.13
2017-10-14T03:37:13.835Z,26.90
2017-10-14T03:39:42.803Z,32.17
2017-10-14T03:42:10.361Z,25.10
2017-10-14T03:44:37.921Z,29.73
2017-10-14T03:47:05.515Z,28.77
2017-10-14T03:49:33.477Z,29.30
2017-10-14T03:52:01.126Z,22.17
2017-10-14T03:54:30.033Z,19.70
2017-10-14T03:56:57.577Z,25.00
2017-10-14T03:59:25.215Z,19.93
2017-10-14T04:01:52.779Z,23.90
2017-10-14T04:04:21.902Z,25.37
2017-10-14T04:06:49.490Z,23.03
2017-10-14T04:09:17.449Z,27.10
2017-10-14T04:11:45.805Z,26.13
2017-10-14T04:14:13.355Z,25.93
2017-10-14T04:16:42.326Z,25.77
2017-10-14T04:19:11.026Z,29.70
2017-10-14T04:21:39.342Z,26.10
2017-10-14T04:24:06.940Z,31.07
2017-10-14T04:26:36.240Z,26.30
2017-10-14T04:29:07.104Z,26.67
2017-10-14T04:31:35.058Z,20.80
2017-10-14T04:34:03.026Z,21.07
2017-10-14T04:36:31.422Z,19.37
2017-10-14T04:38:58.971Z,20.50
2017-10-14T04:41:26.769Z,27.10
2017-10-14T04:43:54.348Z,25.93
2017-10-14T04:46:21.927Z,33.63
2017-10-14T04:48:49.925Z,34.63
2017-10-14T04:51:18.238Z,22.77
2017-10-14T04:53:47.368Z,30.57
2017-10-14T04:56:15.683Z,22.10
2017-10-14T04:58:43.267Z,18.93
2017-10-14T05:01:10.861Z,15.60
2017-10-14T05:03:39.779Z,14.80
2017-10-14T05:06:07.381Z,14.20
2017-10-14T05:08:34.934Z,12.20
2017-10-14T05:11:03.829Z,16.50
2017-10-14T05:13:31.416Z,14.63
2017-10-14T05:15:58.975Z,15.87
2017-10-14T05:18:27.286Z,16.73
2017-10-14T05:20:55.242Z,17.33
2017-10-14T05:23:22.797Z,20.50
2017-10-14T05:25:50.396Z,21.40
2017-10-14T05:28:19.452Z,19.20
2017-10-14T05:30:48.401Z,20.07
2017-10-14T05:33:15.953Z,23.80
2017-10-14T05:35:43.598Z,21.47
2017-10-14T05:38:11.198Z,19.27
2017-10-14T05:40:38.775Z,21.13
2017-10-14T05:43:06.356Z,23.27
2017-10-14T05:45:34.691Z,20.97
2017-10-14T05:48:02.289Z,19.77
2017-10-14T05:50:31.370Z,19.60
2017-10-14T05:52:58.931Z,21.90
2017-10-14T05:55:26.525Z,25.43
2017-10-14T05:57:54.178Z,20.40
2017-10-14T06:00:21.788Z,19.73
2017-10-14T06:02:49.649Z,23.77
2017-10-14T06:05:17.222Z,17.87
2017-10-14T06:07:45.336Z,18.57
2017-10-14T06:10:13.653Z,34.47
2017-10-14T06:12:42.587Z,23.30
2017-10-14T06:15:10.158Z,25.37
2017-10-14T06:17:38.495Z,23.10
2017-10-14T06:20:07.442Z,20.07
2017-10-14T06:22:36.482Z,26.67
2017-10-14T06:25:04.083Z,29.10
2017-10-14T06:27:31.643Z,27.60
2017-10-14T06:30:00.327Z,22.37
2017-10-14T06:32:27.923Z,24.60
2017-10-14T06:34:55.874Z,27.90
2017-10-14T06:37:23.478Z,28.40
2017-10-14T06:39:51.031Z,28.23
2017-10-14T06:42:18.592Z,27.50
2017-10-14T06:44:46.187Z,24.07
2017-10-14T06:47:14.150Z,29.57
2017-10-14T06:49:41.772Z,37.63
2017-10-14T06:52:09.339Z,54.33
2017-10-14T06:54:36.895Z,64.17
2017-10-14T06:57:04.487Z,44.33
2017-10-14T06:59:32.760Z,48.37
2017-10-14T07:02:01.142Z,60.57
2017-10-14T07:04:28.694Z,87.97
2017-10-14T07:06:56.253Z,49.40
2017-10-14T07:09:24.226Z,34.80
2017-10-14T07:11:51.781Z,39.87
2017-10-14T07:14:20.531Z,42.37
2017-10-14T07:16:48.093Z,34.07
2017-10-14T07:19:15.648Z,32.17
2017-10-14T07:21:43.237Z,62.73
2017-10-14T07:24:11.183Z,64.30
2017-10-14T07:26:38.770Z,34.90
2017-10-14T07:29:06.332Z,120.37
2017-10-14T07:31:35.687Z,36.90
2017-10-14T07:34:04.785Z,39.33
2017-10-14T07:36:32.348Z,90.60
2017-10-14T07:39:00.355Z,35.50
2017-10-14T07:41:27.914Z,90.27
2017-10-14T07:43:55.874Z,50.47
2017-10-14T07:46:23.474Z,36.23
2017-10-14T07:48:51.791Z,37.83
2017-10-14T07:51:19.411Z,29.93
2017-10-14T07:53:47.708Z,39.90
2017-10-14T07:56:15.762Z,39.73
2017-10-14T08:01:18.887Z,37.03
2017-10-14T08:03:46.442Z,41.43
2017-10-14T08:06:14.039Z,59.90
2017-10-14T08:08:42.071Z,43.47
2017-10-14T08:11:10.391Z,36.17
2017-10-14T08:13:38.002Z,39.40
2017-10-14T08:16:05.570Z,46.90
2017-10-14T08:18:33.123Z,32.67
2017-10-14T08:21:01.495Z,52.83
2017-10-14T08:23:29.442Z,42.47
2017-10-14T08:25:57.820Z,38.10
2017-10-14T08:28:25.401Z,35.93
2017-10-14T08:30:52.963Z,41.00
2017-10-14T08:33:21.687Z,36.73
2017-10-14T08:35:49.243Z,50.93
2017-10-14T08:38:16.863Z,40.80
2017-10-14T08:40:45.181Z,38.10
2017-10-14T08:43:13.125Z,40.67
2017-10-14T08:45:41.153Z,39.03
2017-10-14T08:48:08.711Z,32.30
2017-10-14T08:50:37.780Z,36.40
2017-10-14T08:53:06.834Z,36.73
2017-10-14T08:55:35.175Z,36.63
2017-10-14T08:58:04.102Z,41.07
2017-10-14T09:00:32.053Z,36.87
2017-10-14T09:02:59.711Z,40.80
2017-10-14T09:05:28.630Z,39.00
2017-10-14T09:07:57.546Z,41.63
2017-10-14T09:10:26.471Z,41.13
2017-10-14T09:12:55.557Z,41.67
2017-10-14T09:15:23.951Z,47.40
2017-10-14T09:17:52.866Z,45.50
2017-10-14T09:20:21.789Z,45.53
2017-10-14T09:22:50.759Z,48.17
2017-10-14T09:25:18.325Z,47.03
2017-10-14T09:27:46.697Z,45.17
2017-10-14T09:30:14.258Z,46.40
2017-10-14T09:32:41.837Z,46.93
2017-10-14T09:35:09.438Z,40.13
2017-10-14T09:37:37.002Z,42.10
2017-10-14T09:40:05.381Z,42.60
2017-10-14T09:42:34.279Z,44.37
2017-10-14T09:45:01.849Z,48.00
2017-10-14T09:47:30.219Z,44.80
2017-10-14T09:49:59.654Z,44.63
2017-10-14T09:52:27.649Z,49.93
2017-10-14T09:54:55.333Z,48.03
2017-10-14T09:57:24.988Z,43.90
2017-10-14T09:59:53.743Z,46.00
2017-10-14T10:02:22.741Z,53.00
2017-10-14T10:04:51.694Z,49.87
2017-10-14T10:07:19.247Z,46.93
2017-10-14T10:09:48.184Z,48.17
2017-10-14T10:12:16.144Z,51.47
2017-10-14T10:14:45.195Z,47.43
2017-10-14T10:17:14.448Z,46.77
2017-10-14T10:19:43.208Z,46.77
2017-10-14T10:22:12.562Z,47.80
2017-10-14T10:24:40.918Z,55.20
2017-10-14T10:27:09.645Z,51.83
2017-10-14T10:29:37.648Z,44.30
2017-10-14T10:32:06.500Z,44.83
2017-10-14T10:34:34.472Z,43.47
2017-10-14T10:37:02.067Z,45.20
2017-10-14T10:39:29.653Z,48.23
2017-10-14T10:41:57.977Z,42.30
2017-10-14T10:44:25.634Z,39.80
2017-10-14T10:46:54.018Z,42.57
2017-10-14T10:49:22.689Z,46.43
2017-10-14T10:51:50.678Z,43.33
2017-10-14T10:54:19.039Z,35.80
2017-10-14T10:56:47.408Z,37.93
2017-10-14T10:59:37.551Z,37.20
2017-10-14T11:02:05.169Z,36.10
2017-10-14T11:04:33.533Z,38.97
2017-10-14T11:07:01.161Z,43.10
2017-10-14T11:09:29.500Z,40.50
2017-10-14T11:11:57.848Z,40.60
2017-10-14T11:14:26.457Z,38.80
2017-10-14T11:16:54.804Z,31.20
2017-10-14T11:19:22.399Z,22.23
2017-10-14T11:21:51.106Z,33.50
2017-10-14T11:24:19.541Z,36.50
2017-10-14T11:26:47.885Z,35.87
2017-10-14T11:29:23.217Z,34.60
2017-10-14T11:31:51.585Z,34.93
2017-10-14T11:34:19.570Z,37.53
2017-10-14T11:36:47.588Z,33.60
2017-10-14T11:39:15.200Z,31.13
2017-10-14T11:41:42.831Z,36.70
2017-10-14T11:44:10.812Z,32.97
2017-10-14T11:46:38.836Z,33.50
2017-10-14T11:49:07.195Z,38.90
2017-10-14T11:51:34.790Z,38.60
2017-10-14T11:54:03.130Z,35.97
2017-10-14T11:56:31.442Z,39.63
2017-10-14T11:58:59.030Z,37.23
2017-10-14T12:01:27.361Z,33.60
2017-10-14T12:03:55.715Z,36.30
2017-10-14T12:06:24.051Z,34.73
2017-10-14T12:08:53.190Z,32.37
2017-10-14T12:11:20.847Z,31.50
2017-10-14T12:13:49.201Z,34.10
2017-10-14T12:16:17.623Z,34.43
2017-10-14T12:18:45.963Z,33.03
2017-10-14T12:21:14.335Z,31.50
2017-10-14T12:23:41.938Z,32.50
2017-10-14T12:26:10.262Z,34.40
2017-10-14T12:28:59.273Z,33.77
2017-10-14T12:31:45.244Z,32.03
2017-10-14T12:36:55.564Z,33.13
2017-10-14T12:39:23.730Z,30.17
2017-10-14T12:41:51.395Z,32.40
2017-10-14T12:44:19.058Z,32.57
2017-10-14T12:46:47.227Z,35.50
2017-10-14T12:49:14.989Z,34.40
2017-10-14T12:51:43.860Z,28.43
2017-10-14T12:54:12.493Z,28.10
2017-10-14T12:56:40.194Z,30.20
2017-10-14T12:59:07.754Z,25.60
2017-10-14T13:01:35.366Z,26.47
2017-10-14T13:04:02.923Z,29.87
2017-10-14T13:06:30.470Z,29.03
2017-10-14T13:08:58.073Z,28.20
2017-10-14T13:11:25.631Z,26.93
2017-10-14T13:13:53.520Z,24.10
2017-10-14T13:16:21.090Z,28.30
2017-10-14T13:18:48.673Z,24.50
2017-10-14T13:21:16.232Z,27.30
2017-10-14T13:23:43.863Z,22.50
2017-10-14T13:26:11.455Z,24.93
2017-10-14T13:28:39.052Z,20.23
2017-10-14T13:31:06.608Z,20.10
2017-10-14T13:33:34.166Z,26.67
2017-10-14T13:36:01.745Z,18.73
2017-10-14T13:38:29.308Z,19.17
2017-10-14T13:40:56.903Z,17.33
2017-10-14T13:43:24.527Z,15.57
2017-10-14T13:45:52.127Z,21.07
2017-10-14T13:48:19.697Z,15.03
2017-10-14T13:50:47.334Z,15.03
2017-10-14T13:53:14.910Z,16.77
2017-10-14T13:55:42.476Z,16.93
2017-10-14T13:58:10.075Z,17.17
2017-10-14T14:00:37.643Z,15.60
2017-10-14T14:03:05.257Z,17.37
2017-10-14T14:05:32.850Z,16.07
2017-10-14T14:08:00.451Z,14.00
2017-10-14T14:10:28.016Z,16.17
2017-10-14T14:12:55.611Z,16.90
2017-10-14T14:15:23.185Z,12.63
2017-10-14T14:17:51.096Z,23.97
2017-10-14T14:20:19.518Z,14.23
2017-10-14T14:22:47.131Z,16.37
2017-10-14T14:25:14.733Z,12.70
2017-10-14T14:27:42.291Z,12.80
2017-10-14T14:30:09.874Z,12.70
2017-10-14T14:32:37.436Z,13.00
2017-10-14T14:35:05.021Z,10.20
2017-10-14T14:37:32.582Z,17.73
2017-10-14T14:40:00.185Z,11.67
2017-10-14T14:42:27.745Z,11.97
2017-10-14T14:44:55.423Z,11.67
2017-10-14T14:47:23.268Z,12.23
2017-10-14T14:49:50.828Z,17.53
2017-10-14T14:52:18.475Z,10.23
2017-10-14T14:54:46.061Z,10.00
2017-10-14T14:57:13.687Z,12.37
2017-10-14T14:59:41.265Z,11.63
2017-10-14T15:02:08.949Z,13.93
2017-10-14T15:04:36.525Z,12.03
2017-10-14T15:07:04.122Z,11.20
2017-10-14T15:09:32.521Z,14.07
2017-10-14T15:12:00.081Z,11.03
2017-10-14T15:14:27.679Z,19.37
2017-10-14T15:16:56.018Z,19.90
2017-10-14T15:19:23.641Z,28.43
2017-10-14T15:21:51.971Z,21.60
2017-10-14T15:24:19.567Z,25.60
2017-10-14T15:26:47.951Z,30.97
2017-10-14T15:32:06.657Z,26.03
2017-10-14T15:34:34.656Z,24.43
2017-10-14T15:37:02.286Z,29.90
2017-10-14T15:39:29.873Z,24.13
2017-10-14T15:41:57.753Z,30.93
2017-10-14T15:44:25.338Z,33.70
2017-10-14T15:46:52.947Z,28.83
2017-10-14T15:49:20.895Z,26.40
2017-10-14T15:51:48.475Z,28.70
2017-10-14T15:54:16.446Z,30.70
2017-10-14T15:56:44.092Z,29.70
2017-10-14T15:59:11.657Z,25.03
2017-10-14T16:01:39.259Z,28.80
2017-10-14T16:04:07.575Z,26.60
2017-10-14T16:06:35.133Z,25.00
2017-10-14T16:09:02.753Z,27.50
2017-10-14T16:11:30.322Z,27.93
2017-10-14T17:38:55.295Z,12.10
2017-10-14T17:41:22.970Z,14.50
2017-10-14T17:43:50.518Z,20.53
2017-10-14T17:46:18.159Z,20.03
2017-10-14T17:48:45.712Z,13.17
2017-10-14T17:51:15.786Z,18.43
2017-10-14T17:53:43.406Z,15.53
2017-10-14T17:56:11.030Z,16.07
2017-10-14T17:58:39.324Z,14.70
2017-10-14T18:01:07.674Z,17.00
2017-10-14T18:03:35.259Z,17.17
2017-10-14T18:06:02.820Z,13.50
2017-10-14T18:08:30.376Z,13.20
2017-10-14T18:10:58.000Z,12.47
2017-10-14T18:13:25.978Z,11.87
2017-10-14T18:15:53.787Z,15.10
2017-10-14T18:18:22.373Z,16.17
2017-10-14T18:20:50.087Z,17.10
2017-10-14T18:23:17.997Z,17.43
2017-10-14T18:25:45.613Z,18.27
2017-10-14T18:28:13.216Z,15.37
2017-10-14T18:30:40.823Z,21.77
2017-10-14T18:33:08.469Z,19.00
2017-10-14T18:35:36.046Z,18.13
2017-10-14T18:38:03.617Z,18.37
2017-10-14T18:43:22.019Z,20.23
2017-10-14T18:45:50.390Z,19.93
2017-10-14T18:48:18.720Z,20.13
2017-10-14T18:50:47.096Z,20.83
2017-10-14T18:53:15.990Z,25.30
2017-10-14T18:55:43.853Z,26.50
2017-10-14T18:58:11.820Z,30.13
2017-10-14T19:00:39.783Z,28.27
2017-10-14T19:03:08.925Z,30.47
2017-10-14T19:05:36.563Z,33.97
2017-10-14T19:08:05.304Z,22.23
2017-10-14T19:10:32.882Z,23.87
2017-10-14T19:13:00.498Z,19.87
2017-10-14T19:15:30.317Z,27.37
2017-10-14T19:17:58.329Z,20.47
2017-10-14T19:20:27.324Z,17.90
2017-10-14T19:22:57.087Z,21.73
2017-10-14T19:25:25.453Z,28.20
2017-10-14T19:27:54.373Z,26.60
2017-10-14T19:30:23.421Z,23.57
2017-10-14T19:32:51.407Z,23.20
2017-10-14T19:35:20.591Z,22.33
2017-10-14T19:38:06.140Z,19.23
2017-10-14T19:40:35.218Z,30.10
2017-10-14T19:43:04.182Z,24.73
2017-10-14T19:45:32.873Z,23.93
2017-10-14T19:48:01.857Z,22.43
2017-10-14T19:50:30.762Z,28.50
2017-10-14T19:52:59.446Z,29.17
2017-10-14T19:55:27.078Z,31.90
2017-10-14T19:57:54.640Z,26.93
2017-10-14T20:00:22.334Z,29.37
2017-10-14T20:02:51.275Z,31.53
2017-10-14T20:05:18.934Z,26.70
2017-10-14T20:07:47.296Z,32.37
2017-10-14T20:10:16.234Z,33.33
2017-10-14T20:12:44.987Z,32.70
2017-10-14T20:15:13.317Z,39.70
2017-10-14T20:17:40.938Z,26.07
2017-10-14T20:20:09.844Z,24.17
2017-10-14T20:22:38.867Z,24.17
2017-10-14T20:25:07.772Z,24.77
2017-10-14T20:27:37.745Z,20.53
2017-10-14T20:30:05.414Z,22.93
2017-10-14T20:32:33.766Z,17.80
2017-10-14T20:35:02.716Z,19.13
2017-10-14T20:37:30.296Z,17.90
2017-10-14T20:39:58.691Z,16.93
2017-10-14T20:42:27.019Z,14.43
2017-10-14T20:44:55.360Z,17.10
2017-10-14T20:47:22.970Z,16.33
2017-10-14T20:49:50.546Z,18.60
2017-10-14T20:52:19.026Z,15.40
2017-10-14T20:54:48.632Z,16.10
2017-10-14T20:57:16.724Z,22.90
2017-10-14T20:59:45.418Z,17.57
2017-10-14T21:02:13.067Z,19.93
2017-10-14T21:04:41.424Z,27.77
2017-10-14T21:07:08.983Z,19.47
2017-10-14T21:09:36.574Z,16.63
2017-10-14T21:12:04.126Z,18.90
2017-10-14T21:14:33.066Z,28.10
2017-10-14T21:17:01.027Z,17.93
2017-10-14T21:19:28.650Z,21.17
2017-10-14T21:21:56.219Z,20.37
2017-10-14T21:24:23.803Z,18.53
2017-10-14T21:26:52.738Z,17.47
2017-10-14T21:29:20.693Z,21.33
2017-10-14T21:31:49.071Z,27.07
2017-10-14T21:34:17.981Z,27.90
2017-10-14T21:36:46.918Z,19.93
2017-10-14T21:39:14.510Z,22.83
2017-10-14T21:41:42.705Z,18.27
2017-10-14T21:44:11.796Z,22.40
2017-10-14T21:46:40.115Z,22.00
2017-10-14T21:49:09.074Z,15.33
2017-10-14T21:51:37.794Z,21.73
2017-10-14T21:54:06.142Z,29.13
2017-10-14T21:56:35.226Z,17.47
2017-10-14T21:59:02.822Z,23.90
2017-10-14T22:01:30.388Z,24.17
2017-10-14T22:03:58.370Z,25.93
2017-10-14T22:06:27.307Z,23.40
2017-10-14T22:08:55.306Z,26.63
2017-10-14T22:11:23.832Z,25.60
2017-10-14T22:13:51.854Z,25.60
2017-10-14T22:16:20.172Z,27.53
2017-10-14T22:18:48.876Z,20.90
2017-10-14T22:21:17.821Z,25.00
2017-10-14T22:23:46.874Z,20.43
2017-10-14T22:26:14.562Z,22.73
2017-10-14T22:28:43.461Z,20.70
2017-10-14T22:31:12.514Z,20.40
2017-10-14T22:33:40.882Z,28.17
2017-10-14T22:36:09.203Z,23.63
2017-10-14T22:38:37.683Z,25.07
2017-10-14T22:41:05.239Z,20.73
2017-10-14T22:46:06.645Z,23.00
2017-10-14T22:48:34.214Z,21.77
2017-10-14T22:51:01.814Z,25.20
2017-10-14T22:53:29.379Z,27.70
2017-10-14T22:55:56.991Z,22.13
2017-10-14T22:58:24.601Z,32.30
2017-10-14T23:00:52.193Z,23.20
2017-10-14T23:03:19.975Z,23.20
2017-10-14T23:05:48.289Z,23.37
2017-10-14T23:08:15.893Z,23.87
2017-10-14T23:10:43.449Z,22.97
2017-10-14T23:13:11.901Z,26.20
2017-10-14T23:15:39.449Z,23.83
2017-10-14T23:18:07.046Z,23.20
2017-10-14T23:20:34.623Z,23.83
2017-10-14T23:23:02.227Z,22.93
2017-10-14T23:25:29.790Z,22.33
2017-10-14T23:27:57.384Z,28.40
2017-10-14T23:30:24.954Z,21.53
2017-10-14T23:32:53.278Z,26.30
2017-10-14T23:35:21.304Z,35.13
2017-10-14T23:37:48.869Z,31.77
2017-10-14T23:40:16.502Z,30.47
2017-10-14T23:42:44.104Z,40.13
2017-10-14T23:45:11.682Z,32.63
2017-10-14T23:47:40.040Z,34.67
2017-10-14T23:50:07.614Z,35.03
2017-10-14T23:52:35.216Z,37.87
2017-10-14T23:55:02.777Z,36.53
2017-10-14T23:57:30.333Z,32.80
2017-10-14T23:59:57.922Z,33.10
